Time;durP1;ratioP1;P1;durP2;ratioP2;P2;SDS_P1;SDS_P2;PMS_P1;PMS_P2;Temp;Humidity;BMP_temperature;BMP_pressure;BME280_temperature;BME280_humidity;BME280_pressure;Samples;Min_cycle;Max_cycle;Signal;HPM_P1;HPM_P2
2022/06/22 00:00:11;;;;;;;10.60;3.90;;;;;;;25.40;56.23;99645.31;4990563;28;20278;-72
2022/06/22 00:02:36;;;;;;;8.50;4.23;;;;;;;25.40;56.02;99645.31;4974719;28;20560;-71
2022/06/22 00:05:04;;;;;;;9.03;4.30;;;;;;;25.41;55.87;99646.94;4974088;28;20480;-72
2022/06/22 00:07:45;;;;;;;7.30;4.20;;;;;;;25.36;55.19;99635.06;4969205;28;20207;-73
2022/06/22 00:10:16;;;;;;;6.07;3.90;;;;;;;25.29;54.83;99626.56;4955414;28;20903;-71
2022/06/22 00:12:41;;;;;;;8.47;4.00;;;;;;;25.30;54.67;99623.22;4977099;28;20425;-71
2022/06/22 00:15:29;;;;;;;8.30;3.40;;;;;;;25.29;54.21;99626.56;4989564;28;20439;-72
2022/06/22 00:17:54;;;;;;;7.50;4.17;;;;;;;25.30;54.15;99626.13;4973949;28;20228;-72
2022/06/22 00:20:28;;;;;;;7.80;4.00;;;;;;;25.33;53.56;99625.22;4964504;28;20422;-72
2022/06/22 00:23:12;;;;;;;10.70;3.50;;;;;;;25.34;53.76;99618.16;4954924;28;20177;-72
2022/06/22 00:25:38;;;;;;;14.07;3.80;;;;;;;25.26;53.30;99622.47;4985859;28;20440;-71
2022/06/22 00:28:25;;;;;;;6.13;3.87;;;;;;;25.29;52.97;99635.22;4990120;28;20456;-72
2022/06/22 00:31:00;;;;;;;8.47;3.63;;;;;;;25.32;52.33;99634.31;4989245;28;20217;-71
2022/06/22 00:33:25;;;;;;;12.23;3.53;;;;;;;25.31;52.29;99630.63;4971095;28;20523;-72
2022/06/22 00:36:03;;;;;;;7.47;3.20;;;;;;;25.32;52.26;99637.22;4970503;28;20445;-71
2022/06/22 00:38:31;;;;;;;7.30;3.30;;;;;;;25.33;51.77;99650.44;4971785;28;20181;-71
2022/06/22 00:40:59;;;;;;;7.47;3.83;;;;;;;25.32;52.22;99645.88;4969943;28;20504;-72
2022/06/22 00:43:27;;;;;;;6.10;2.67;;;;;;;25.32;51.77;99634.31;4970204;28;20430;-72
2022/06/22 00:45:52;;;;;;;6.00;3.00;;;;;;;25.32;51.21;99631.44;4954531;28;20437;-72
2022/06/22 00:48:36;;;;;;;5.97;3.10;;;;;;;25.29;51.15;99618.69;4937913;28;20492;-72
2022/06/22 00:51:03;;;;;;;9.60;3.30;;;;;;;25.30;51.67;99625.28;4937897;28;20187;-72
2022/06/22 00:53:32;;;;;;;8.20;3.07;;;;;;;25.29;51.30;99615.00;4970321;28;20675;-71
2022/06/22 00:56:23;;;;;;;9.03;3.37;;;;;;;25.28;51.00;99617.06;4954392;28;20456;-72
2022/06/22 00:59:03;;;;;;;5.50;2.87;;;;;;;25.29;51.14;99621.56;4969976;28;20410;-71
2022/06/22 01:01:34;;;;;;;9.60;3.43;;;;;;;25.28;50.68;99643.06;4963187;28;20897;-71
2022/06/22 01:04:01;;;;;;;8.40;3.10;;;;;;;25.27;50.60;99655.91;4989043;28;20457;-71
2022/06/22 01:06:49;;;;;;;8.23;3.00;;;;;;;25.28;51.26;99662.50;4971467;28;20540;-71
2022/06/22 01:09:26;;;;;;;7.87;2.40;;;;;;;25.29;50.74;99672.78;4967782;28;20481;-71
2022/06/22 01:12:22;;;;;;;9.33;2.90;;;;;;;25.29;51.65;99670.72;4948675;28;20449;-71
2022/06/22 01:15:03;;;;;;;6.63;2.70;;;;;;;25.31;51.69;99667.38;4965830;28;20538;-71
2022/06/22 01:17:36;;;;;;;5.30;2.90;;;;;;;25.33;51.58;99677.25;4968259;28;20406;-72
2022/06/22 01:20:04;;;;;;;6.77;2.83;;;;;;;25.36;52.15;99692.88;4954775;28;20436;-71
2022/06/22 01:22:42;;;;;;;5.20;2.70;;;;;;;25.34;51.44;99699.09;4968472;28;20429;-72
2022/06/22 01:25:10;;;;;;;6.00;3.00;;;;;;;25.34;51.62;99699.09;4972051;28;20445;-71
2022/06/22 01:27:38;;;;;;;6.03;2.73;;;;;;;25.29;51.60;99690.94;4971188;28;21200;-72
2022/06/22 01:30:18;;;;;;;7.80;2.87;;;;;;;25.28;51.33;99674.84;4954090;28;20426;-71
2022/06/22 01:32:43;;;;;;;5.83;3.10;;;;;;;25.28;51.27;99648.06;4938323;28;20814;-71
2022/06/22 01:35:30;;;;;;;7.53;2.50;;;;;;;25.28;51.52;99613.38;4953863;28;20436;-72
2022/06/22 01:37:55;;;;;;;5.00;2.97;;;;;;;25.26;51.31;99607.19;4969952;28;20581;-72
2022/06/22 01:40:29;;;;;;;4.00;2.43;;;;;;;25.24;50.95;99596.06;4968941;28;20476;-72
2022/06/22 01:43:01;;;;;;;4.63;3.10;;;;;;;25.18;50.79;99597.03;4952791;28;20580;-71
2022/06/22 01:45:35;;;;;;;8.00;2.80;;;;;;;25.18;50.79;99580.50;4968456;28;20504;-72
2022/06/22 01:48:12;;;;;;;5.60;3.20;;;;;;;25.18;50.61;99586.28;4954599;28;20549;-72
2022/06/22 01:50:48;;;;;;;4.60;2.90;;;;;;;25.18;50.20;99591.25;4952095;28;20426;-71
2022/06/22 01:53:27;;;;;;;5.90;2.67;;;;;;;25.14;50.03;99591.31;4968220;28;20969;-72
2022/06/22 01:55:59;;;;;;;9.50;2.97;;;;;;;25.14;50.33;99582.63;4953128;28;20893;-72
2022/06/22 01:58:53;;;;;;;6.30;2.53;;;;;;;25.15;50.09;99580.56;4954315;28;20426;-72
2022/06/22 02:01:32;;;;;;;4.43;2.57;;;;;;;25.17;50.57;99593.31;4975311;28;20421;-71
2022/06/22 02:04:22;;;;;;;5.40;2.57;;;;;;;25.16;49.90;99588.81;4989109;28;20532;-71
2022/06/22 02:10:09;;;;;;;6.33;2.90;;;;;;;25.15;49.85;99603.69;4990738;28;20424;-71
2022/06/22 02:12:37;;;;;;;4.60;2.53;;;;;;;25.04;49.73;99614.66;4982345;28;20429;-71
2022/06/22 02:15:35;;;;;;;7.80;2.50;;;;;;;25.09;49.74;99622.78;4967612;28;20437;-71
2022/06/22 02:18:01;;;;;;;6.50;2.77;;;;;;;25.09;49.27;99634.34;4973071;28;20438;-72
2022/06/22 02:20:32;;;;;;;4.73;2.83;;;;;;;25.08;49.61;99642.19;4952948;28;20429;-71
2022/06/22 02:23:18;;;;;;;4.80;2.87;;;;;;;25.08;49.42;99641.41;4972927;28;20186;-72
2022/06/22 02:26:00;;;;;;;5.40;2.27;;;;;;;25.10;49.67;99636.81;4972412;28;20967;-72
2022/06/22 02:28:26;;;;;;;5.50;2.90;;;;;;;25.15;49.91;99623.91;4991930;28;20476;-72
2022/06/22 02:30:51;;;;;;;4.30;2.43;;;;;;;25.18;49.78;99637.47;4967324;28;20520;-72
2022/06/22 02:33:17;;;;;;;6.93;2.53;;;;;;;25.19;49.32;99639.09;4972941;28;20638;-71
2022/06/22 02:35:42;;;;;;;5.63;2.30;;;;;;;25.20;50.12;99638.69;4971396;28;20608;-72
2022/06/22 02:38:09;;;;;;;4.67;2.53;;;;;;;25.21;49.52;99646.09;4955737;28;20186;-72
2022/06/22 02:44:29;;;;;;;5.13;2.80;;;;;;;25.20;50.11;99658.91;4956382;28;20222;-72
2022/06/22 02:46:05;;;;;;;3.57;2.37;;;;;;;25.20;49.68;99664.69;4972864;28;20793;-72
2022/06/22 02:48:32;;;;;;;4.60;2.50;;;;;;;25.17;49.85;99656.06;4972538;28;20632;-71
2022/06/22 02:51:16;;;;;;;5.93;2.47;;;;;;;25.17;49.90;99656.88;4956869;28;20193;-71
2022/06/22 02:53:42;;;;;;;5.03;2.33;;;;;;;25.18;50.01;99655.63;4958975;28;20786;-72
2022/06/22 02:56:15;;;;;;;3.80;2.23;;;;;;;25.18;49.93;99644.06;4956144;28;20430;-72
2022/06/22 02:58:41;;;;;;;3.83;2.30;;;;;;;25.18;49.96;99641.16;4973064;28;20171;-72
2022/06/22 03:01:06;;;;;;;4.93;2.07;;;;;;;25.18;50.03;99646.94;4977188;28;20857;-72
2022/06/22 03:03:33;;;;;;;6.87;2.50;;;;;;;25.19;50.04;99644.88;5008379;28;20240;-71
2022/06/22 03:05:59;;;;;;;6.80;2.10;;;;;;;25.19;50.20;99642.81;4961446;28;20219;-72
2022/06/22 03:08:24;;;;;;;4.27;2.43;;;;;;;25.18;50.12;99632.50;4972269;28;20467;-71
2022/06/22 03:11:00;;;;;;;4.53;2.27;;;;;;;25.18;49.48;99620.94;4955654;28;20178;-71
2022/06/22 03:13:31;;;;;;;3.97;2.40;;;;;;;25.16;49.60;99611.91;4956406;28;20265;-72
2022/06/22 03:15:56;;;;;;;5.27;2.50;;;;;;;25.14;49.72;99611.53;4972441;28;20773;-71
2022/06/22 03:18:28;;;;;;;5.40;2.00;;;;;;;25.11;49.36;99615.31;4972431;28;20472;-72
2022/06/22 03:20:58;;;;;;;4.90;2.60;;;;;;;25.10;49.27;99630.19;4956297;28;20178;-71
2022/06/22 03:23:39;;;;;;;5.47;2.17;;;;;;;25.10;49.96;99633.91;4957419;28;20476;-72
2022/06/22 03:26:29;;;;;;;5.10;2.40;;;;;;;25.13;50.07;99640.88;4974885;28;20464;-71
2022/06/22 03:29:03;;;;;;;4.87;2.30;;;;;;;25.13;50.02;99650.34;4952001;28;20497;-71
2022/06/22 03:31:35;;;;;;;4.43;2.20;;;;;;;25.13;50.31;99647.47;4952992;28;20439;-72
2022/06/22 03:34:04;;;;;;;6.73;2.30;;;;;;;25.15;50.27;99656.53;4955015;28;20999;-71
2022/06/22 03:36:41;;;;;;;3.80;2.30;;;;;;;25.16;50.13;99665.97;4954666;28;20426;-72
2022/06/22 03:39:09;;;;;;;5.63;2.40;;;;;;;25.15;49.61;99670.13;4955450;28;20440;-72
2022/06/22 03:41:39;;;;;;;3.17;2.00;;;;;;;25.15;50.11;99667.25;4972817;28;20432;-71
2022/06/22 03:44:14;;;;;;;6.20;2.70;;;;;;;25.12;50.03;99668.94;4991122;28;20778;-72
2022/06/22 03:46:51;;;;;;;4.23;2.43;;;;;;;25.11;49.72;99664.44;4956933;28;20441;-72
2022/06/22 03:49:20;;;;;;;3.20;2.17;;;;;;;25.10;50.05;99659.09;4955698;28;20885;-72
2022/06/22 03:51:49;;;;;;;3.33;2.03;;;;;;;25.11;50.28;99661.53;4956165;28;20430;-72
2022/06/22 03:54:18;;;;;;;4.60;2.47;;;;;;;25.12;50.40;99654.50;4955365;28;20444;-72
2022/06/22 03:56:46;;;;;;;2.97;2.00;;;;;;;25.13;50.79;99638.00;4971356;28;20926;-72
2022/06/22 03:59:12;;;;;;;4.50;2.10;;;;;;;25.14;50.60;99633.84;4955493;28;21150;-72
2022/06/22 04:01:38;;;;;;;3.60;1.90;;;;;;;25.14;50.33;99645.41;4958635;28;21212;-71
2022/06/22 04:04:03;;;;;;;4.67;2.40;;;;;;;25.14;50.06;99648.28;4974635;28;20456;-72
2022/06/22 04:06:31;;;;;;;4.73;2.47;;;;;;;25.14;50.51;99668.50;4974611;28;20336;-71
2022/06/22 04:08:58;;;;;;;4.63;2.50;;;;;;;25.14;50.62;99662.72;4974607;28;20673;-72
2022/06/22 04:11:27;;;;;;;3.40;1.87;;;;;;;25.15;50.71;99664.34;4974674;28;20429;-72
2022/06/22 04:14:11;;;;;;;3.20;2.07;;;;;;;25.15;50.38;99668.06;4990119;28;20433;-71
2022/06/22 04:16:38;;;;;;;3.83;2.60;;;;;;;25.15;50.77;99679.63;4957129;28;20451;-72
2022/06/22 04:19:40;;;;;;;5.07;2.37;;;;;;;25.14;50.78;99689.53;4955239;28;20420;-72
2022/06/22 04:22:14;;;;;;;4.70;2.60;;;;;;;25.14;50.65;99697.41;4958020;28;20541;-71
2022/06/22 04:24:52;;;;;;;4.87;2.90;;;;;;;25.12;50.86;99697.84;4970914;28;20619;-71
2022/06/22 04:27:35;;;;;;;4.70;2.13;;;;;;;25.12;50.10;99703.63;4979941;28;20951;-71
2022/06/22 04:30:06;;;;;;;4.50;2.10;;;;;;;25.11;50.51;99706.94;4973606;28;20433;-71
2022/06/22 04:32:55;;;;;;;4.47;2.43;;;;;;;25.11;50.67;99707.78;4991071;28;20405;-72
2022/06/22 04:35:48;;;;;;;3.57;2.10;;;;;;;25.11;50.42;99713.53;4991512;28;20417;-71
2022/06/22 04:38:17;;;;;;;5.27;2.40;;;;;;;25.12;50.77;99714.34;4974612;28;20424;-72
2022/06/22 04:40:47;;;;;;;5.37;2.43;;;;;;;25.11;50.76;99715.59;4983439;28;20457;-72
2022/06/22 04:43:12;;;;;;;5.93;2.37;;;;;;;25.11;50.60;99724.28;4970339;28;20428;-73
2022/06/22 04:45:42;;;;;;;5.40;2.37;;;;;;;25.11;50.78;99718.50;4954817;28;20437;-71
2022/06/22 04:48:15;;;;;;;4.07;2.27;;;;;;;25.11;50.69;99712.72;4954440;28;20249;-71
2022/06/22 04:50:42;;;;;;;4.70;2.33;;;;;;;25.11;50.80;99715.59;4954395;28;20425;-71
2022/06/22 04:53:31;;;;;;;5.80;2.60;;;;;;;25.12;50.42;99723.00;4954639;28;20433;-71
2022/06/22 04:55:58;;;;;;;3.30;2.00;;;;;;;25.13;50.65;99725.47;4969630;28;20433;-72
2022/06/22 04:58:28;;;;;;;6.30;2.30;;;;;;;25.11;50.19;99725.09;4954502;28;20425;-73
2022/06/22 05:00:54;;;;;;;4.63;2.20;;;;;;;25.09;50.56;99727.59;4972770;28;20425;-71
2022/06/22 05:03:19;;;;;;;7.23;2.33;;;;;;;25.10;51.17;99731.31;4973543;28;20836;-72
2022/06/22 05:05:45;;;;;;;4.47;2.50;;;;;;;25.09;51.09;99741.25;4989754;28;20783;-71
2022/06/22 05:08:24;;;;;;;4.70;2.37;;;;;;;25.10;50.95;99745.75;4973806;28;20213;-72
2022/06/22 05:11:01;;;;;;;11.37;3.43;;;;;;;25.10;51.48;99749.47;4973409;28;20177;-71
2022/06/22 05:13:34;;;;;;;7.80;2.87;;;;;;;25.08;51.61;99749.06;4991225;28;20875;-72
2022/06/22 05:16:02;;;;;;;5.77;2.60;;;;;;;25.09;51.69;99753.59;4961996;28;20557;-71
2022/06/22 05:18:30;;;;;;;4.47;2.30;;;;;;;25.05;52.49;99752.03;4956272;28;20960;-71
2022/06/22 05:20:55;;;;;;;5.00;2.53;;;;;;;25.05;52.59;99744.19;4940574;28;20440;-71
2022/06/22 05:23:22;;;;;;;7.50;3.10;;;;;;;25.03;53.00;99758.25;4978510;28;20801;-74
2022/06/22 05:25:50;;;;;;;4.93;2.90;;;;;;;25.01;53.41;99743.44;4974321;28;20177;-71
2022/06/22 05:28:20;;;;;;;7.17;2.80;;;;;;;25.01;53.21;99742.59;4972873;28;20546;-71
2022/06/22 05:30:52;;;;;;;9.40;3.30;;;;;;;25.04;52.97;99768.53;4973579;28;20919;-70
2022/06/22 05:33:19;;;;;;;9.33;3.57;;;;;;;25.05;53.12;99752.88;4976584;28;20496;-71
2022/06/22 05:35:51;;;;;;;8.33;3.30;;;;;;;25.05;53.13;99741.31;4990739;28;21126;-71
2022/06/22 05:38:17;;;;;;;9.10;3.10;;;;;;;25.04;53.82;99748.31;4957470;28;20514;-71
2022/06/22 05:40:42;;;;;;;9.77;3.70;;;;;;;25.05;53.77;99738.41;4971864;28;20521;-71
2022/06/22 05:43:08;;;;;;;6.77;3.60;;;;;;;25.06;53.67;99727.66;4972363;28;20267;-70
2022/06/22 05:45:38;;;;;;;6.90;3.30;;;;;;;25.06;54.16;99728.50;4970971;28;20649;-72
2022/06/22 05:48:04;;;;;;;9.70;3.90;;;;;;;25.07;54.54;99737.97;4955041;28;20198;-71
2022/06/22 05:50:49;;;;;;;8.80;3.83;;;;;;;25.05;54.25;99738.41;4956017;28;21224;-71
2022/06/22 05:53:23;;;;;;;7.60;4.60;;;;;;;25.04;54.61;99733.88;4972501;28;20413;-72
2022/06/22 05:55:55;;;;;;;7.40;4.37;;;;;;;25.03;54.55;99740.91;4974864;28;20418;-72
2022/06/22 05:58:51;;;;;;;7.97;4.53;;;;;;;25.04;55.07;99733.88;4971508;28;20904;-72
2022/06/22 06:01:41;;;;;;;8.83;3.90;;;;;;;25.04;54.84;99736.75;4968235;28;20413;-71
2022/06/22 06:04:40;;;;;;;10.00;4.43;;;;;;;25.05;55.25;99741.31;4997486;28;20436;-72
2022/06/22 06:07:11;;;;;;;9.10;4.80;;;;;;;25.05;55.06;99732.66;4993792;28;20507;-71
2022/06/22 06:09:37;;;;;;;9.53;3.90;;;;;;;25.06;55.63;99730.56;4980286;28;20443;-70
2022/06/22 06:12:13;;;;;;;8.53;4.47;;;;;;;25.06;55.41;99728.50;4997339;28;20413;-71
2022/06/22 06:14:40;;;;;;;8.10;3.70;;;;;;;25.06;55.21;99719.81;4973463;28;20178;-71
2022/06/22 06:17:09;;;;;;;10.57;4.17;;;;;;;25.05;55.71;99718.19;4955201;28;20425;-71
2022/06/22 06:19:37;;;;;;;12.17;4.23;;;;;;;25.04;56.04;99718.63;4973577;28;20446;-71
2022/06/22 06:22:04;;;;;;;7.87;3.67;;;;;;;25.03;55.52;99706.25;4974079;28;20580;-70
2022/06/22 06:27:34;;;;;;;7.13;3.40;;;;;;;25.03;55.87;99714.91;4958100;28;20778;-71
2022/06/22 06:27:34;;;;;;;9.87;4.60;;;;;;;25.04;56.11;99704.97;4983634;28;20456;-72
2022/06/22 06:30:15;;;;;;;8.70;3.43;;;;;;;25.04;56.20;99695.53;4995580;28;20412;-72
2022/06/22 06:32:48;;;;;;;8.50;3.53;;;;;;;25.05;56.05;99697.97;4994401;28;20428;-72
2022/06/22 06:35:17;;;;;;;7.20;3.67;;;;;;;25.04;56.31;99699.22;4984330;28;20536;-70
2022/06/22 06:38:11;;;;;;;10.07;4.27;;;;;;;25.04;56.57;99695.53;4974885;28;20948;-71
2022/06/22 06:40:47;;;;;;;8.23;3.87;;;;;;;25.04;56.24;99699.22;4975053;28;20793;-72
2022/06/22 06:43:37;;;;;;;14.13;3.40;;;;;;;25.05;57.02;99703.75;4972630;28;20409;-72
2022/06/22 06:46:05;;;;;;;7.60;3.23;;;;;;;25.05;56.72;99703.75;4975646;28;20496;-71
2022/06/22 06:48:30;;;;;;;8.70;3.90;;;;;;;25.03;57.12;99705.44;4976192;28;20492;-71
2022/06/22 06:50:59;;;;;;;13.47;4.30;;;;;;;25.02;57.05;99716.19;4959223;28;20434;-71
2022/06/22 06:53:52;;;;;;;11.13;4.33;;;;;;;25.03;57.32;99712.03;4972893;28;20240;-71
2022/06/22 06:56:29;;;;;;;8.80;3.70;;;;;;;25.03;57.78;99722.78;4975491;28;20437;-71
2022/06/22 06:58:57;;;;;;;5.87;2.90;;;;;;;25.04;57.54;99730.19;4959094;28;20812;-71
2022/06/22 07:01:40;;;;;;;7.37;3.43;;;;;;;25.07;57.48;99738.78;4955927;28;20504;-71
2022/06/22 07:04:17;;;;;;;5.23;3.60;;;;;;;25.07;57.71;99735.91;4973464;28;20940;-71
2022/06/22 07:06:42;;;;;;;6.10;3.20;;;;;;;25.07;57.90;99727.22;4960164;28;20485;-71
2022/06/22 07:09:16;;;;;;;7.53;3.97;;;;;;;25.08;57.83;99742.50;4961199;28;20461;-71
2022/06/22 07:11:49;;;;;;;17.97;5.13;;;;;;;25.07;57.96;99735.91;4974031;28;20191;-71
2022/06/22 07:14:26;;;;;;;4.40;2.83;;;;;;;25.08;57.85;99739.63;4960511;28;20508;-72
2022/06/22 07:16:54;;;;;;;8.97;4.27;;;;;;;25.06;58.86;99740.03;4954623;29;20410;-71
2022/06/22 07:19:26;;;;;;;6.87;4.00;;;;;;;25.05;58.29;99747.09;4942748;28;20938;-71
2022/06/22 07:22:17;;;;;;;7.77;3.60;;;;;;;25.04;58.75;99768.53;4975596;28;20433;-71
2022/06/22 07:25:02;;;;;;;8.53;4.57;;;;;;;25.03;59.03;99781.34;4979399;28;20947;-71
2022/06/22 07:27:39;;;;;;;11.20;4.27;;;;;;;25.02;59.27;99767.34;4994631;28;20448;-71
2022/06/22 07:30:14;;;;;;;10.73;3.80;;;;;;;25.01;59.13;99743.44;4975094;28;20432;-72
2022/06/22 07:32:52;;;;;;;12.37;3.90;;;;;;;25.04;58.97;99745.44;4992714;28;20503;-72
2022/06/22 07:35:28;;;;;;;9.87;4.17;;;;;;;25.04;58.98;99768.53;4972359;28;20838;-72
2022/06/22 07:38:15;;;;;;;7.00;3.53;;;;;;;24.97;59.12;99788.06;4970051;28;20536;-71
2022/06/22 07:41:18;;;;;;;9.23;3.97;;;;;;;24.98;59.61;99776.06;4971443;28;20489;-72
2022/06/22 07:43:26;;;;;;;7.17;4.20;;;;;;;25.01;58.74;99768.59;4959124;28;20442;-71
2022/06/22 07:45:52;;;;;;;4.97;4.10;;;;;;;25.03;59.42;99764.03;4956165;28;20430;-73
2022/06/22 07:48:19;;;;;;;5.70;3.77;;;;;;;25.06;59.17;99757.38;4987489;28;20684;-73
2022/06/22 07:50:51;;;;;;;5.77;3.90;;;;;;;25.06;59.15;99748.72;4956088;28;20260;-71
2022/06/22 07:53:17;;;;;;;8.30;3.90;;;;;;;25.08;58.60;99754.84;4939944;28;20450;-71
2022/06/22 07:56:15;;;;;;;6.27;3.77;;;;;;;25.08;58.69;99754.84;4969393;28;20764;-71
2022/06/22 07:58:49;;;;;;;6.87;3.70;;;;;;;25.06;58.55;99757.38;4971935;28;20476;-73
2022/06/22 08:01:20;;;;;;;5.67;3.70;;;;;;;25.06;58.52;99768.09;4959210;28;20436;-72
2022/06/22 08:03:49;;;;;;;8.07;3.47;;;;;;;25.06;58.94;99766.03;4987992;28;20444;-72
2022/06/22 08:06:28;;;;;;;6.37;3.63;;;;;;;25.07;58.40;99770.56;4973358;28;20480;-72
2022/06/22 08:09:03;;;;;;;7.93;3.70;;;;;;;25.08;59.24;99768.50;4970945;28;20479;-72
2022/06/22 08:11:34;;;;;;;7.57;4.33;;;;;;;25.07;58.53;99770.56;4971993;28;20427;-71
2022/06/22 08:14:20;;;;;;;4.93;3.60;;;;;;;25.08;58.57;99762.72;4987007;28;20952;-72
2022/06/22 08:16:52;;;;;;;7.53;4.23;;;;;;;25.07;59.07;99759.00;4970255;28;20426;-71
2022/06/22 08:19:18;;;;;;;6.57;4.00;;;;;;;25.08;58.69;99756.94;4954282;28;20421;-72
2022/06/22 08:21:47;;;;;;;12.80;4.40;;;;;;;25.06;59.15;99768.09;4970584;28;20429;-72
2022/06/22 08:24:13;;;;;;;5.97;4.57;;;;;;;25.03;58.96;99764.03;4954330;28;20190;-72
2022/06/22 08:26:39;;;;;;;7.60;4.70;;;;;;;25.02;59.42;99773.13;4974281;28;20444;-72
2022/06/22 08:29:04;;;;;;;9.87;4.80;;;;;;;25.03;59.35;99769.00;4973021;28;20453;-72
2022/06/22 08:31:35;;;;;;;7.80;4.30;;;;;;;25.04;59.67;99771.44;4990413;28;20162;-72
2022/06/22 08:34:01;;;;;;;7.10;4.67;;;;;;;25.05;59.42;99766.47;4975268;28;20629;-72
2022/06/22 08:36:45;;;;;;;10.73;4.60;;;;;;;25.06;58.96;99771.00;4980289;28;20445;-71
2022/06/22 08:39:20;;;;;;;6.47;4.57;;;;;;;25.06;59.60;99768.94;4970765;28;20250;-71
2022/06/22 08:42:04;;;;;;;11.03;4.17;;;;;;;25.07;59.76;99767.69;4954639;28;20433;-72
2022/06/22 08:44:40;;;;;;;10.07;4.60;;;;;;;25.08;59.53;99766.41;4987152;28;20434;-72
2022/06/22 08:47:24;;;;;;;10.77;4.73;;;;;;;25.08;59.60;99769.31;4970469;28;20425;-72
2022/06/22 08:50:09;;;;;;;9.23;4.40;;;;;;;25.08;59.74;99777.97;4970162;28;20421;-72
2022/06/22 08:52:47;;;;;;;7.00;4.40;;;;;;;25.05;59.06;99773.09;4971062;28;20416;-72
2022/06/22 08:55:38;;;;;;;6.77;4.60;;;;;;;25.07;59.55;99776.34;4971769;28;20408;-71
2022/06/22 08:58:25;;;;;;;5.47;4.67;;;;;;;25.06;59.42;99785.44;4971750;28;20413;-71
2022/06/22 09:00:55;;;;;;;7.40;4.10;;;;;;;25.06;59.57;99780.50;4969805;28;20414;-71
2022/06/22 09:03:43;;;;;;;10.00;4.30;;;;;;;25.06;59.93;99786.28;4970115;28;20548;-72
2022/06/22 09:06:21;;;;;;;9.03;3.63;;;;;;;25.07;60.04;99793.69;4970489;28;20552;-71
2022/06/22 09:09:01;;;;;;;8.60;4.53;;;;;;;25.09;59.68;99791.16;4971672;28;20461;-72
2022/06/22 09:11:28;;;;;;;6.13;3.50;;;;;;;25.09;59.84;99796.13;4974630;28;20425;-72
2022/06/22 09:14:23;;;;;;;6.70;4.13;;;;;;;25.10;59.66;99791.97;4970294;28;20846;-72
2022/06/22 09:16:51;;;;;;;4.93;3.87;;;;;;;25.09;59.66;99794.03;4950813;29;20529;-73
2022/06/22 09:19:35;;;;;;;6.50;4.00;;;;;;;25.10;59.79;99786.22;4951748;29;20434;-71
2022/06/22 09:22:14;;;;;;;9.13;4.37;;;;;;;25.10;59.75;99791.97;4952507;28;20439;-71
2022/06/22 09:25:01;;;;;;;6.07;4.27;;;;;;;25.09;59.79;99791.16;4952171;28;20439;-72
2022/06/22 09:27:32;;;;;;;7.77;4.47;;;;;;;25.06;60.23;99797.00;4973979;28;20433;-71
2022/06/22 09:30:04;;;;;;;6.90;4.30;;;;;;;25.08;60.62;99789.53;4987996;28;20416;-72
2022/06/22 09:32:43;;;;;;;6.33;4.00;;;;;;;25.09;59.77;99796.94;4969943;28;20438;-72
2022/06/22 09:35:45;;;;;;;5.87;3.93;;;;;;;25.09;60.52;99791.16;4971667;28;20493;-72
2022/06/22 09:38:38;;;;;;;6.50;3.87;;;;;;;25.10;60.28;99791.97;4971755;28;20409;-72
2022/06/22 09:41:12;;;;;;;8.13;5.20;;;;;;;25.09;60.15;99791.16;4970026;28;20410;-71
2022/06/22 09:44:04;;;;;;;6.10;3.50;;;;;;;25.09;60.17;99796.94;4970779;28;20452;-72
2022/06/22 09:46:51;;;;;;;9.13;4.53;;;;;;;25.10;60.10;99798.59;4969535;28;20433;-71
2022/06/22 09:49:25;;;;;;;7.03;4.43;;;;;;;25.11;60.48;99806.00;4969555;28;20465;-72
2022/06/22 09:51:58;;;;;;;7.93;4.17;;;;;;;25.12;60.39;99806.78;4971061;28;20432;-70
2022/06/22 09:57:34;;;;;;;10.30;5.23;;;;;;;25.10;60.27;99807.25;4956988;28;20472;-72
2022/06/22 10:00:11;;;;;;;10.00;4.63;;;;;;;25.12;60.81;99807.63;4969643;28;20437;-72
2022/06/22 10:02:45;;;;;;;8.10;5.30;;;;;;;25.12;60.71;99813.41;4970023;28;20793;-71
2022/06/22 10:05:32;;;;;;;11.93;4.93;;;;;;;25.13;60.79;99812.13;4990802;28;20478;-71
2022/06/22 10:08:16;;;;;;;16.37;6.33;;;;;;;25.12;60.99;99809.69;4989737;28;20463;-71
2022/06/22 10:10:59;;;;;;;10.07;5.93;;;;;;;25.11;60.95;99810.94;4981640;28;20439;-72
2022/06/22 10:13:56;;;;;;;7.50;5.03;;;;;;;25.09;61.60;99811.38;4985855;28;20426;-71
2022/06/22 10:16:44;;;;;;;7.27;5.50;;;;;;;25.00;63.24;99821.84;4953619;28;20437;-71
2022/06/22 10:19:46;;;;;;;12.43;6.13;;;;;;;24.81;64.52;99826.28;4970887;28;20508;-72
2022/06/22 10:22:30;;;;;;;9.13;6.67;;;;;;;24.73;65.97;99824.72;4971301;28;20410;-72
2022/06/22 10:25:31;;;;;;;15.43;6.53;;;;;;;24.53;66.40;99832.41;4971188;28;20437;-71
2022/06/22 10:28:42;;;;;;;13.13;6.20;;;;;;;24.64;66.45;99824.44;4970481;28;20478;-72
2022/06/22 10:31:26;;;;;;;17.90;5.93;;;;;;;24.63;67.10;99822.03;4989633;28;20935;-71
2022/06/22 10:34:24;;;;;;;14.23;6.00;;;;;;;24.65;67.25;99826.09;4988533;28;20439;-71
2022/06/22 10:36:56;;;;;;;13.40;5.60;;;;;;;24.63;66.65;99819.94;4990815;28;20435;-72
2022/06/22 10:39:49;;;;;;;12.30;5.63;;;;;;;24.57;66.79;99823.69;4991696;28;20483;-71
2022/06/22 10:45:20;;;;;;;13.70;5.13;;;;;;;24.68;66.51;99816.56;4973350;28;20440;-71
2022/06/22 10:48:14;;;;;;;23.30;5.63;;;;;;;24.51;68.30;99816.78;4971182;28;20480;-72
2022/06/22 10:50:45;;;;;;;14.70;4.80;;;;;;;24.55;67.53;99821.28;4970293;28;20410;-72
2022/06/22 10:53:26;;;;;;;13.63;4.03;;;;;;;24.24;68.71;99825.38;4971068;28;20436;-72
2022/06/22 10:56:17;;;;;;;19.60;5.30;;;;;;;24.36;68.91;99839.25;4970200;28;20861;-72
2022/06/22 10:59:05;;;;;;;14.27;4.63;;;;;;;24.30;69.32;99829.44;4970706;28;20434;-72
2022/06/22 11:01:43;;;;;;;16.60;5.60;;;;;;;24.40;68.46;99825.59;4978671;28;20414;-71
2022/06/22 11:04:14;;;;;;;14.30;4.13;;;;;;;24.44;67.93;99829.22;4976299;28;20449;-71
2022/06/22 11:06:59;;;;;;;16.33;4.70;;;;;;;24.33;68.51;99822.78;4988967;28;20512;-72
2022/06/22 11:09:47;;;;;;;22.30;4.97;;;;;;;24.27;68.93;99824.53;4971747;28;20496;-71
2022/06/22 11:12:39;;;;;;;14.17;5.23;;;;;;;24.52;67.88;99829.94;4987980;28;20454;-72
2022/06/22 11:15:37;;;;;;;19.60;4.80;;;;;;;24.50;68.04;99829.59;4967579;28;20476;-72
2022/06/22 11:18:12;;;;;;;15.63;4.57;;;;;;;24.31;68.44;99830.25;4974127;28;20435;-72
2022/06/22 11:20:43;;;;;;;16.13;4.70;;;;;;;24.26;68.92;99828.66;4972147;28;20422;-72
2022/06/22 11:23:15;;;;;;;19.03;4.90;;;;;;;24.36;68.03;99827.72;4974471;28;20421;-72
2022/06/22 11:32:06;;;;;;;15.63;4.43;;;;;;;24.47;67.82;99821.78;4952952;29;20450;-71
2022/06/22 11:35:02;;;;;;;12.87;4.93;;;;;;;24.44;68.16;99814.81;4952593;29;20858;-71
2022/06/22 11:37:47;;;;;;;12.57;4.27;;;;;;;24.64;67.18;99806.31;4964133;28;20477;-71
2022/06/22 11:40:38;;;;;;;11.83;4.17;;;;;;;24.41;68.30;99818.56;4963451;28;20445;-72
2022/06/22 11:43:22;;;;;;;14.57;4.30;;;;;;;24.49;67.68;99807.75;4952487;29;20427;-71
2022/06/22 11:46:19;;;;;;;13.00;3.60;;;;;;;24.49;67.77;99811.44;4980213;28;20786;-73
2022/06/22 11:48:56;;;;;;;14.90;5.07;;;;;;;24.55;67.75;99808.91;4972396;28;20488;-71
2022/06/22 11:51:56;;;;;;;10.50;3.70;;;;;;;24.62;67.11;99800.16;4971756;28;20463;-72
2022/06/22 11:54:22;;;;;;;24.53;4.80;;;;;;;24.61;67.12;99804.28;4961281;28;20432;-72
2022/06/22 11:57:13;;;;;;;16.97;4.10;;;;;;;24.66;68.01;99800.94;4973384;28;20532;-71
2022/06/22 12:00:09;;;;;;;20.07;4.40;;;;;;;24.75;66.67;99799.16;4957770;28;20662;-71
2022/06/22 12:02:45;;;;;;;16.70;3.87;;;;;;;24.73;66.56;99792.97;4972997;28;20905;-73
2022/06/22 12:05:19;;;;;;;21.67;3.83;;;;;;;24.69;66.42;99788.53;4955788;28;20832;-72
2022/06/22 12:08:10;;;;;;;15.10;3.90;;;;;;;24.70;66.40;99781.47;4971473;28;20890;-71
2022/06/22 12:10:40;;;;;;;16.83;4.33;;;;;;;24.87;65.68;99772.53;4970860;28;20441;-72
2022/06/22 12:13:28;;;;;;;17.43;4.77;;;;;;;24.93;65.39;99781.56;4970920;28;20874;-72
2022/06/22 12:16:11;;;;;;;14.50;4.07;;;;;;;24.81;66.02;99779.25;4972314;28;20425;-72
2022/06/22 12:19:05;;;;;;;16.03;4.10;;;;;;;24.80;65.59;99790.00;4937879;28;20544;-73
2022/06/22 12:21:52;;;;;;;12.63;3.90;;;;;;;24.89;65.37;99790.25;4961816;28;20709;-73
2022/06/22 12:24:33;;;;;;;16.33;3.73;;;;;;;24.83;67.00;99786.22;4970741;28;20414;-71
2022/06/22 12:27:06;;;;;;;16.03;4.23;;;;;;;24.78;65.92;99780.94;4963792;28;20503;-72
2022/06/22 12:29:34;;;;;;;17.57;4.13;;;;;;;24.92;65.08;99769.16;4990256;28;20463;-72
2022/06/22 12:32:12;;;;;;;15.43;4.43;;;;;;;24.89;65.12;99769.22;4991790;28;20436;-72